Tarrytown, New York
Current Conditions -  °F | °C
As of 8:56 AM on Thursday 27 Nov 2014 (Local Time) from KHPN Reporting Station
Broken Clouds Broken Clouds  
Wind Chill: 26°   Ceiling: 9000
Heat Index: 33°   Visibility: 10mi
Dew Point: 27°   Wind: 8mph
Humidity: 78%   Direction: 340°NNW
Pressure: 29.96"   Gusts: NA
Location:  41.08°N, 73.86°W
Report Text: KHPN 271356Z AUTO 34007KT 10SM FEW040 SCT065 BKN090 01/M03 A2996 RMK AO2 RAB10E54 SLP154 P0000 T00061028 TSNO
Loading
Personal Weather Stations






























Interactive Weather Map New forecast layout! Learn more

10-Day Weather Forecast

Advertisements
Track Severe Weather on mobile